createdAt,value
2023-02-03T00:01:38.351Z,59.26
2023-02-03T00:03:40.741Z,58.71
2023-02-03T00:05:43.501Z,58.78
2023-02-03T00:07:45.843Z,58.56
2023-02-03T00:09:48.330Z,58.73
2023-02-03T00:11:50.440Z,59.09
2023-02-03T00:13:55.482Z,58.72
2023-02-03T00:15:57.641Z,58.96
2023-02-03T00:17:59.799Z,59.32
2023-02-03T00:20:01.938Z,59.25
2023-02-03T00:22:04.076Z,59.30
2023-02-03T00:24:06.176Z,59.40
2023-02-03T00:26:16.127Z,58.95
2023-02-03T00:28:21.807Z,59.35
2023-02-03T00:30:24.508Z,58.83
2023-02-03T00:32:27.243Z,58.87
2023-02-03T00:34:30.809Z,58.81
2023-02-03T00:36:33.214Z,58.86
2023-02-03T00:38:35.848Z,58.67
2023-02-03T00:40:37.928Z,58.95
2023-02-03T00:42:40.059Z,59.00
2023-02-03T00:44:42.137Z,59.08
2023-02-03T00:46:44.273Z,58.74
2023-02-03T00:48:46.529Z,58.89
2023-02-03T00:50:48.895Z,59.07
2023-02-03T00:52:51.061Z,58.73
2023-02-03T00:54:55.949Z,59.01
2023-02-03T00:56:58.004Z,58.62
2023-02-03T00:59:00.213Z,59.25
2023-02-03T01:01:02.309Z,58.76
2023-02-03T01:03:04.618Z,59.12
2023-02-03T01:05:07.362Z,58.82
2023-02-03T01:07:12.397Z,58.84
2023-02-03T01:09:14.454Z,59.15
2023-02-03T01:11:21.567Z,59.39
2023-02-03T01:13:23.814Z,59.23
2023-02-03T01:15:25.887Z,59.29
2023-02-03T01:17:28.340Z,59.25
2023-02-03T01:19:33.689Z,60.18
2023-02-03T01:21:36.593Z,59.74
2023-02-03T01:23:39.014Z,59.99
2023-02-03T01:25:41.088Z,59.41
2023-02-03T01:27:43.444Z,59.81
2023-02-03T01:29:45.441Z,59.57
2023-02-03T01:31:47.743Z,59.74
2023-02-03T01:33:51.677Z,59.25
2023-02-03T01:35:53.945Z,59.58
2023-02-03T01:37:55.899Z,60.13
2023-02-03T01:39:58.039Z,60.44
2023-02-03T01:42:01.912Z,60.77
2023-02-03T01:44:35.999Z,61.46
2023-02-03T01:46:45.211Z,60.73
2023-02-03T01:48:47.138Z,60.93
2023-02-03T01:50:49.269Z,61.04
2023-02-03T01:52:57.168Z,61.08
2023-02-03T01:55:03.925Z,61.00
2023-02-03T01:57:13.646Z,60.93
2023-02-03T01:59:22.066Z,61.60
2023-02-03T02:01:24.712Z,61.34
2023-02-03T02:03:44.338Z,61.83
2023-02-03T02:05:50.812Z,61.73
2023-02-03T02:07:53.485Z,61.73
2023-02-03T02:09:56.091Z,61.71
2023-02-03T02:11:58.221Z,61.48
2023-02-03T02:14:03.136Z,61.78
2023-02-03T02:16:27.436Z,62.09
2023-02-03T02:18:42.131Z,62.45
2023-02-03T02:20:56.391Z,62.57
2023-02-03T02:23:30.283Z,62.41
2023-02-03T02:26:16.939Z,62.52
2023-02-03T02:28:56.627Z,62.20
2023-02-03T02:31:36.468Z,62.82
2023-02-03T02:33:55.260Z,62.51
2023-02-03T02:36:03.640Z,62.19
2023-02-03T02:38:32.174Z,62.45
2023-02-03T02:40:44.697Z,62.97
2023-02-03T02:43:26.834Z,63.35
2023-02-03T02:45:45.770Z,62.74
2023-02-03T02:47:48.888Z,62.84
2023-02-03T02:50:04.044Z,63.23
2023-02-03T02:52:08.978Z,63.33
2023-02-03T02:54:16.783Z,63.12
2023-02-03T02:56:19.861Z,62.93
2023-02-03T02:58:25.167Z,63.46
2023-02-03T03:00:31.982Z,63.46
2023-02-03T03:02:36.218Z,63.03
2023-02-03T03:04:39.141Z,62.87
2023-02-03T03:06:54.801Z,62.77
2023-02-03T03:08:58.990Z,63.13
2023-02-03T03:11:03.707Z,63.20
2023-02-03T03:13:12.561Z,63.10
2023-02-03T03:15:23.192Z,63.21
2023-02-03T03:17:31.749Z,62.91
2023-02-03T03:19:40.229Z,62.96
2023-02-03T03:22:02.963Z,63.18
2023-02-03T03:24:11.044Z,63.22
2023-02-03T03:26:19.467Z,63.37
2023-02-03T03:28:28.797Z,63.09
2023-02-03T03:30:36.429Z,63.20
2023-02-03T03:32:39.220Z,63.01
2023-02-03T03:34:42.561Z,63.31
2023-02-03T03:37:05.748Z,62.85
2023-02-03T03:39:28.971Z,63.28
2023-02-03T03:41:55.338Z,63.17
2023-02-03T03:44:04.393Z,62.95
2023-02-03T03:46:15.278Z,63.11
2023-02-03T03:48:27.728Z,62.64
2023-02-03T03:50:35.493Z,62.62
2023-02-03T03:52:39.127Z,62.45
2023-02-03T03:54:42.848Z,62.88
2023-02-03T03:57:06.619Z,63.18
2023-02-03T03:59:11.528Z,62.58
2023-02-03T04:01:16.072Z,62.44
2023-02-03T04:03:25.748Z,62.48
2023-02-03T04:05:29.059Z,62.64
2023-02-03T04:07:43.671Z,62.90
2023-02-03T04:09:45.929Z,62.52
2023-02-03T04:12:02.955Z,62.38
2023-02-03T04:14:05.541Z,62.31
2023-02-03T04:16:07.983Z,62.16
2023-02-03T04:18:16.435Z,62.24
2023-02-03T04:20:18.703Z,62.32
2023-02-03T04:22:22.043Z,62.24
2023-02-03T04:24:27.130Z,61.90
2023-02-03T04:26:29.349Z,61.85
2023-02-03T04:28:31.613Z,62.34
2023-02-03T04:30:34.369Z,62.10
2023-02-03T04:32:36.636Z,61.91
2023-02-03T04:34:38.953Z,62.00
2023-02-03T04:36:41.146Z,62.36
2023-02-03T04:38:43.328Z,62.24
2023-02-03T04:40:46.430Z,62.14
2023-02-03T04:42:48.721Z,62.86
2023-02-03T04:44:51.593Z,62.75
2023-02-03T04:46:53.913Z,62.42
2023-02-03T04:48:56.305Z,62.13
2023-02-03T04:51:06.841Z,62.49
2023-02-03T04:53:09.192Z,62.46
2023-02-03T04:55:11.448Z,62.48
2023-02-03T04:57:13.560Z,62.71
2023-02-03T04:59:15.798Z,62.46
2023-02-03T05:01:18.461Z,62.14
2023-02-03T05:03:20.733Z,62.34
2023-02-03T05:05:23.028Z,62.22
2023-02-03T05:07:25.713Z,62.56
2023-02-03T05:09:28.570Z,62.14
2023-02-03T05:11:30.882Z,62.43
2023-02-03T05:13:32.936Z,62.34
2023-02-03T05:15:35.398Z,62.19
2023-02-03T05:17:40.095Z,62.11
2023-02-03T05:19:44.976Z,61.76
2023-02-03T05:21:47.072Z,61.93
2023-02-03T05:23:49.255Z,62.21
2023-02-03T05:25:52.486Z,61.89
2023-02-03T05:27:54.881Z,62.09
2023-02-03T05:29:57.096Z,61.81
2023-02-03T05:31:59.310Z,62.05
2023-02-03T05:34:03.473Z,61.81
2023-02-03T05:36:06.025Z,62.02
2023-02-03T05:38:08.300Z,61.93
2023-02-03T05:40:29.391Z,61.76
2023-02-03T05:42:31.525Z,61.87
2023-02-03T05:44:33.580Z,61.71
2023-02-03T05:46:35.961Z,61.92
2023-02-03T05:48:38.086Z,62.04
2023-02-03T05:50:43.173Z,61.59
2023-02-03T05:52:45.638Z,61.99
2023-02-03T05:54:47.784Z,61.84
2023-02-03T05:56:49.835Z,61.82
2023-02-03T05:58:53.642Z,62.02
2023-02-03T06:00:55.963Z,62.03
2023-02-03T06:03:02.571Z,62.30
2023-02-03T06:05:05.214Z,62.17
2023-02-03T06:07:07.447Z,62.00
2023-02-03T06:09:09.609Z,62.03
2023-02-03T06:11:12.123Z,62.24
2023-02-03T06:13:16.340Z,61.87
2023-02-03T06:15:19.140Z,61.60
2023-02-03T06:17:21.252Z,62.04
2023-02-03T06:19:23.227Z,61.98
2023-02-03T06:21:25.819Z,61.84
2023-02-03T06:23:28.211Z,61.43
2023-02-03T06:25:32.833Z,61.97
2023-02-03T06:27:35.927Z,61.57
2023-02-03T06:29:38.065Z,61.74
2023-02-03T06:31:40.296Z,61.33
2023-02-03T06:33:42.499Z,61.77
2023-02-03T06:35:44.808Z,61.88
2023-02-03T06:37:46.912Z,61.66
2023-02-03T06:39:49.065Z,61.20
2023-02-03T06:41:52.177Z,61.60
2023-02-03T06:43:54.367Z,61.44
2023-02-03T06:45:57.170Z,61.52
2023-02-03T06:47:59.735Z,61.37
2023-02-03T06:50:02.101Z,61.99
2023-02-03T06:52:04.305Z,61.97
2023-02-03T06:54:07.852Z,61.69
2023-02-03T06:56:09.849Z,61.94
2023-02-03T06:58:12.072Z,61.90
2023-02-03T07:00:18.811Z,61.76
2023-02-03T07:02:21.960Z,61.56
2023-02-03T07:04:24.214Z,61.68
2023-02-03T07:06:29.566Z,62.39
2023-02-03T07:08:31.756Z,62.23
2023-02-03T07:10:33.900Z,62.58
2023-02-03T07:12:36.934Z,62.37
2023-02-03T07:14:39.643Z,62.73
2023-02-03T07:16:41.598Z,62.25
2023-02-03T07:18:47.260Z,62.60
2023-02-03T07:20:51.555Z,62.04
2023-02-03T07:22:55.998Z,62.17
2023-02-03T07:24:57.947Z,62.05
2023-02-03T07:27:00.055Z,62.01
2023-02-03T07:29:02.116Z,61.98
2023-02-03T07:31:08.361Z,62.04
2023-02-03T07:33:10.458Z,61.96
2023-02-03T07:35:12.474Z,61.96
2023-02-03T07:37:14.464Z,62.15
2023-02-03T07:39:16.852Z,61.88
2023-02-03T07:41:19.048Z,61.70
2023-02-03T07:43:21.358Z,62.08
2023-02-03T07:45:25.154Z,61.95
2023-02-03T07:47:27.332Z,61.73
2023-02-03T07:49:29.352Z,61.56
2023-02-03T07:51:32.089Z,61.98
2023-02-03T07:53:37.241Z,61.96
2023-02-03T07:55:40.186Z,61.50
2023-02-03T07:57:43.849Z,61.93
2023-02-03T07:59:46.676Z,61.67
2023-02-03T08:01:49.076Z,61.83
2023-02-03T08:03:53.035Z,61.56
2023-02-03T08:05:56.678Z,61.40
2023-02-03T08:07:59.596Z,61.17
2023-02-03T08:10:02.361Z,61.04
2023-02-03T08:12:07.204Z,60.52
2023-02-03T08:14:09.358Z,61.04
2023-02-03T08:16:11.552Z,60.94
2023-02-03T08:18:13.622Z,60.97
2023-02-03T08:20:17.179Z,60.66
2023-02-03T08:22:19.602Z,61.04
2023-02-03T08:24:21.811Z,60.91
2023-02-03T08:26:24.454Z,60.87
2023-02-03T08:28:27.287Z,60.81
2023-02-03T08:30:29.764Z,60.92
2023-02-03T08:32:33.518Z,60.54
2023-02-03T08:34:35.756Z,60.67
2023-02-03T08:36:40.365Z,60.63
2023-02-03T08:38:42.634Z,60.25
2023-02-03T08:40:51.133Z,60.35
2023-02-03T08:42:53.759Z,59.60
2023-02-03T08:44:56.805Z,59.58
2023-02-03T08:47:00.149Z,59.61
2023-02-03T08:49:03.716Z,59.73
2023-02-03T08:51:17.257Z,59.67
2023-02-03T08:53:19.415Z,59.66
2023-02-03T08:55:21.633Z,59.70
2023-02-03T08:57:24.046Z,59.25
2023-02-03T08:59:26.628Z,59.66
2023-02-03T09:01:30.817Z,59.96
2023-02-03T09:03:32.962Z,59.61
2023-02-03T09:05:35.752Z,59.30
2023-02-03T09:07:38.035Z,58.92
2023-02-03T09:09:40.375Z,58.69
2023-02-03T09:11:43.396Z,59.05
2023-02-03T09:13:46.376Z,59.31
2023-02-03T09:15:49.904Z,58.89
2023-02-03T09:17:52.352Z,58.16
2023-02-03T09:19:54.358Z,58.53
2023-02-03T09:21:57.648Z,57.57
2023-02-03T09:24:04.113Z,57.61
2023-02-03T09:26:08.571Z,57.44
2023-02-03T09:28:10.933Z,57.02
2023-02-03T09:30:14.724Z,57.18
2023-02-03T09:32:17.229Z,57.10
2023-02-03T09:34:20.754Z,56.56
2023-02-03T09:36:22.917Z,56.63
2023-02-03T09:38:26.651Z,55.55
2023-02-03T09:40:34.440Z,56.63
2023-02-03T09:42:42.904Z,54.62
2023-02-03T09:44:57.607Z,54.63
2023-02-03T09:47:04.503Z,55.55
2023-02-03T09:49:17.186Z,55.68
2023-02-03T09:51:30.320Z,53.42
2023-02-03T09:53:45.415Z,55.04
2023-02-03T09:55:48.822Z,54.74
2023-02-03T09:57:59.167Z,54.94
2023-02-03T10:00:13.970Z,54.66
2023-02-03T10:02:28.306Z,52.97
2023-02-03T10:04:40.308Z,53.46
2023-02-03T10:06:47.332Z,53.16
2023-02-03T10:09:07.519Z,53.01
2023-02-03T10:11:21.595Z,53.39
2023-02-03T10:13:34.825Z,53.98
2023-02-03T10:16:08.538Z,49.86
2023-02-03T10:18:14.420Z,51.26
2023-02-03T10:20:22.112Z,52.96
2023-02-03T10:22:31.220Z,52.73
2023-02-03T10:24:50.167Z,51.91
2023-02-03T10:26:55.085Z,53.31
2023-02-03T10:29:14.274Z,52.52
2023-02-03T10:31:20.856Z,51.32
2023-02-03T10:33:28.669Z,52.04
2023-02-03T10:35:52.771Z,51.63
2023-02-03T10:37:59.509Z,51.63
2023-02-03T10:40:02.930Z,52.48
2023-02-03T10:42:06.772Z,51.33
2023-02-03T10:44:13.375Z,51.94
2023-02-03T10:46:17.710Z,51.27
2023-02-03T10:48:19.898Z,51.11
2023-02-03T10:50:32.032Z,51.79
2023-02-03T10:52:36.079Z,51.34
2023-02-03T10:54:38.585Z,51.18
2023-02-03T10:56:41.206Z,51.14
2023-02-03T10:58:53.031Z,50.02
2023-02-03T11:01:07.604Z,50.52
2023-02-03T11:03:32.539Z,51.42
2023-02-03T11:05:34.997Z,51.68
2023-02-03T11:07:37.745Z,52.15
2023-02-03T11:09:43.225Z,51.78
2023-02-03T11:11:45.494Z,49.98
2023-02-03T11:13:53.232Z,50.51
2023-02-03T11:16:05.234Z,49.47
2023-02-03T11:18:44.441Z,50.14
2023-02-03T11:20:46.633Z,50.32
2023-02-03T11:22:49.015Z,49.94
2023-02-03T11:24:51.251Z,49.63
2023-02-03T11:27:05.037Z,49.99
2023-02-03T11:29:15.252Z,50.20
2023-02-03T11:31:22.114Z,50.48
2023-02-03T11:33:27.958Z,50.18
2023-02-03T11:35:32.031Z,51.34
2023-02-03T11:37:38.935Z,50.71
2023-02-03T11:39:41.673Z,51.97
2023-02-03T11:41:45.970Z,51.87
2023-02-03T11:43:48.563Z,52.26
2023-02-03T11:45:59.859Z,51.16
2023-02-03T11:48:08.118Z,52.23
2023-02-03T11:50:32.131Z,50.50
2023-02-03T11:52:48.201Z,49.53
2023-02-03T11:55:16.759Z,49.24
2023-02-03T11:57:18.802Z,49.29
2023-02-03T11:59:45.851Z,48.02
2023-02-03T12:02:09.991Z,48.70
2023-02-03T12:04:21.389Z,49.13
2023-02-03T12:06:35.422Z,49.05
2023-02-03T12:08:52.524Z,48.71
2023-02-03T12:11:36.299Z,48.69
2023-02-03T12:14:16.879Z,49.62
2023-02-03T12:16:38.486Z,49.50
2023-02-03T12:19:10.663Z,49.72
2023-02-03T12:21:23.858Z,50.37
2023-02-03T12:23:40.531Z,50.31
2023-02-03T12:25:57.985Z,50.33
2023-02-03T12:28:33.344Z,49.55
2023-02-03T12:30:43.845Z,49.88
2023-02-03T12:32:54.675Z,49.85
2023-02-03T12:35:06.249Z,50.41
2023-02-03T12:37:22.589Z,49.97
2023-02-03T12:40:05.043Z,50.20
2023-02-03T12:42:22.027Z,50.44
2023-02-03T12:44:43.930Z,50.56
2023-02-03T12:46:53.761Z,50.90
2023-02-03T12:49:17.309Z,50.56
2023-02-03T12:51:46.750Z,51.12
2023-02-03T12:53:55.463Z,51.02
2023-02-03T12:56:07.814Z,51.27
2023-02-03T12:58:25.257Z,51.54
2023-02-03T13:00:43.453Z,51.66
2023-02-03T13:03:14.770Z,51.80
2023-02-03T13:05:22.773Z,52.18
2023-02-03T13:07:40.916Z,52.97
2023-02-03T13:09:59.132Z,52.95
2023-02-03T13:12:07.003Z,50.93
2023-02-03T13:14:28.675Z,49.78
2023-02-03T13:16:36.372Z,49.61
2023-02-03T13:18:42.983Z,50.32
2023-02-03T13:20:45.784Z,51.45
2023-02-03T13:22:48.589Z,52.13
2023-02-03T13:25:18.297Z,52.69
2023-02-03T13:27:35.208Z,52.15
2023-02-03T13:29:54.174Z,51.41
2023-02-03T13:32:02.116Z,50.49
2023-02-03T13:34:32.185Z,49.71
2023-02-03T13:37:07.268Z,49.74
2023-02-03T13:39:15.598Z,50.36
2023-02-03T13:41:28.796Z,50.42
2023-02-03T13:43:44.919Z,49.28
2023-02-03T13:45:52.921Z,49.63
2023-02-03T13:48:02.272Z,50.04
2023-02-03T13:50:10.341Z,50.06
2023-02-03T13:52:28.809Z,49.86
2023-02-03T13:54:37.728Z,50.41
2023-02-03T13:56:41.249Z,50.30
2023-02-03T13:58:43.308Z,49.64
2023-02-03T14:00:45.611Z,50.24
2023-02-03T14:02:55.843Z,49.81
2023-02-03T14:04:59.407Z,50.36
2023-02-03T14:07:03.806Z,50.70
2023-02-03T14:09:44.522Z,49.68
2023-02-03T14:11:49.826Z,50.33
2023-02-03T14:13:52.375Z,50.36
2023-02-03T14:16:25.305Z,50.94
2023-02-03T14:18:32.972Z,51.75
2023-02-03T14:20:40.802Z,52.58
2023-02-03T14:22:43.225Z,52.60
2023-02-03T14:24:49.174Z,53.00
2023-02-03T14:26:54.454Z,55.22
2023-02-03T14:28:57.032Z,55.39
2023-02-03T14:31:03.316Z,55.68
2023-02-03T14:33:05.769Z,56.53
2023-02-03T14:35:17.698Z,57.90
2023-02-03T14:37:19.926Z,56.58
2023-02-03T14:39:36.566Z,57.37
2023-02-03T14:42:01.674Z,58.20
2023-02-03T14:44:37.836Z,58.54
2023-02-03T14:46:58.095Z,58.50
2023-02-03T14:49:17.701Z,58.83
2023-02-03T14:51:51.871Z,57.54
2023-02-03T14:53:59.681Z,58.41
2023-02-03T14:56:21.354Z,58.29
2023-02-03T14:58:36.562Z,58.61
2023-02-03T15:00:38.949Z,58.28
2023-02-03T15:03:14.320Z,59.75
2023-02-03T15:05:35.073Z,59.14
2023-02-03T15:07:48.482Z,58.78
2023-02-03T15:09:52.035Z,59.42
2023-02-03T15:11:54.423Z,58.81
2023-02-03T15:14:16.553Z,58.97
2023-02-03T15:16:23.228Z,58.94
2023-02-03T15:18:39.361Z,58.98
2023-02-03T15:20:42.069Z,58.18
2023-02-03T15:22:44.194Z,58.38
2023-02-03T15:24:46.422Z,58.61
2023-02-03T15:26:51.282Z,58.98
2023-02-03T15:28:58.441Z,59.23
2023-02-03T15:31:12.495Z,59.10
2023-02-03T15:33:21.621Z,58.93
2023-02-03T15:35:27.326Z,58.47
2023-02-03T15:37:54.403Z,59.04
2023-02-03T15:40:07.794Z,59.60
2023-02-03T15:42:35.421Z,59.02
2023-02-03T15:44:47.857Z,59.32
2023-02-03T15:46:52.879Z,59.23
2023-02-03T15:49:09.518Z,59.62
2023-02-03T15:51:24.265Z,59.58
2023-02-03T15:53:47.605Z,59.59
2023-02-03T15:55:57.463Z,58.97
2023-02-03T15:58:00.490Z,59.41
2023-02-03T16:00:40.404Z,59.54
2023-02-03T16:02:46.678Z,59.72
2023-02-03T16:04:52.582Z,59.17
2023-02-03T16:06:58.959Z,59.27
2023-02-03T16:09:01.207Z,59.35
2023-02-03T16:11:22.081Z,60.14
2023-02-03T16:13:26.502Z,59.68
2023-02-03T16:15:29.172Z,60.37
2023-02-03T16:17:36.054Z,59.83
2023-02-03T16:19:43.747Z,60.12
2023-02-03T16:23:00.791Z,60.95
2023-02-03T16:25:23.243Z,60.81
2023-02-03T16:27:30.406Z,60.33
2023-02-03T16:29:54.945Z,60.22
2023-02-03T16:32:15.937Z,59.96
2023-02-03T16:34:38.577Z,60.54
2023-02-03T16:37:01.258Z,60.08
2023-02-03T16:39:29.751Z,60.60
2023-02-03T16:41:54.065Z,60.45
2023-02-03T16:44:14.703Z,60.57
2023-02-03T16:46:35.685Z,60.90
2023-02-03T16:48:56.515Z,60.82
2023-02-03T16:51:07.100Z,60.50
2023-02-03T16:53:14.986Z,60.91
2023-02-03T16:55:17.466Z,60.50
2023-02-03T16:57:21.788Z,60.96
2023-02-03T16:59:24.329Z,60.48
2023-02-03T17:01:26.746Z,61.67
2023-02-03T17:03:30.267Z,60.90
2023-02-03T17:05:36.588Z,60.24
2023-02-03T17:07:39.027Z,60.80
2023-02-03T17:09:48.651Z,61.30
2023-02-03T17:11:51.674Z,60.53
2023-02-03T17:13:54.105Z,61.26
2023-02-03T17:15:57.569Z,61.73
2023-02-03T17:18:00.167Z,61.50
2023-02-03T17:20:02.630Z,61.61
2023-02-03T17:22:05.111Z,61.04
2023-02-03T17:24:07.776Z,60.81
2023-02-03T17:26:10.641Z,60.88
2023-02-03T17:28:15.270Z,61.69
2023-02-03T17:30:17.636Z,61.38
2023-02-03T17:32:19.808Z,61.27
2023-02-03T17:34:22.555Z,61.46
2023-02-03T17:36:24.850Z,61.08
2023-02-03T17:38:29.136Z,61.02
2023-02-03T17:54:31.885Z,61.62
2023-02-03T17:56:35.887Z,61.45
2023-02-03T17:58:38.754Z,60.96
2023-02-03T18:00:41.620Z,61.39
2023-02-03T18:02:50.101Z,61.22
2023-02-03T18:04:54.989Z,61.31
2023-02-03T18:06:57.156Z,61.04
2023-02-03T18:09:02.228Z,61.05
2023-02-03T18:11:05.301Z,61.36
2023-02-03T18:13:07.774Z,61.91
2023-02-03T18:15:10.350Z,61.65
2023-02-03T18:17:12.696Z,61.37
2023-02-03T18:19:15.962Z,61.68
2023-02-03T18:21:18.234Z,61.96
2023-02-03T18:23:20.909Z,61.63
2023-02-03T18:25:25.995Z,61.80
2023-02-03T18:27:28.029Z,61.96
2023-02-03T18:29:30.525Z,62.22
2023-02-03T18:31:33.341Z,61.98
2023-02-03T18:33:36.827Z,62.19
2023-02-03T18:35:39.306Z,61.98
2023-02-03T18:37:41.592Z,62.25
2023-02-03T18:39:43.850Z,62.59
2023-02-03T18:41:45.833Z,62.56
2023-02-03T18:43:51.649Z,62.64
2023-02-03T18:45:54.509Z,62.63
2023-02-03T18:47:57.008Z,63.08
2023-02-03T18:49:59.378Z,62.39
2023-02-03T18:52:01.785Z,62.77
2023-02-03T18:54:04.576Z,62.96
2023-02-03T18:56:15.213Z,62.99
2023-02-03T18:58:17.906Z,62.84
2023-02-03T19:00:23.935Z,62.94
2023-02-03T19:02:26.213Z,62.61
2023-02-03T19:04:28.481Z,62.75
2023-02-03T19:06:32.712Z,62.58
2023-02-03T19:08:34.999Z,62.50
2023-02-03T19:10:37.237Z,62.86
2023-02-03T19:12:39.848Z,63.02
2023-02-03T19:14:42.088Z,62.54
2023-02-03T19:16:44.667Z,62.42
2023-02-03T19:18:47.431Z,63.12
2023-02-03T19:20:49.392Z,62.50
2023-02-03T19:22:51.786Z,62.66
2023-02-03T19:24:54.167Z,62.77
2023-02-03T19:26:58.163Z,62.95
2023-02-03T19:29:01.007Z,62.74
2023-02-03T19:31:08.908Z,62.73
2023-02-03T19:33:11.593Z,62.90
2023-02-03T19:35:15.629Z,63.29
2023-02-03T19:37:17.820Z,63.49
2023-02-03T19:39:21.375Z,62.88
2023-02-03T19:41:26.067Z,62.53
2023-02-03T19:43:28.894Z,63.16
2023-02-03T19:45:31.262Z,62.64
2023-02-03T19:47:34.226Z,62.98
2023-02-03T19:49:37.150Z,62.98
2023-02-03T19:51:40.151Z,63.41
2023-02-03T19:53:42.306Z,63.27
2023-02-03T19:55:46.300Z,63.13
2023-02-03T19:57:48.618Z,63.36
2023-02-03T19:59:51.379Z,63.54
2023-02-03T20:01:53.931Z,63.28
2023-02-03T20:03:58.548Z,63.13
2023-02-03T20:06:04.143Z,63.25
2023-02-03T20:08:07.431Z,63.32
2023-02-03T20:10:10.071Z,62.90
2023-02-03T20:12:12.926Z,63.88
2023-02-03T20:14:16.833Z,63.14
2023-02-03T20:16:19.194Z,63.93
2023-02-03T20:18:21.853Z,63.73
2023-02-03T20:20:24.449Z,63.01
2023-02-03T20:22:26.712Z,62.98
2023-02-03T20:24:28.739Z,63.58
2023-02-03T20:26:31.984Z,63.35
2023-02-03T20:28:33.787Z,63.38
2023-02-03T20:30:35.716Z,63.74
2023-02-03T20:32:37.623Z,63.64
2023-02-03T20:34:39.863Z,63.49
2023-02-03T20:36:42.527Z,63.64
2023-02-03T20:38:47.264Z,63.10
2023-02-03T20:40:49.433Z,63.09
2023-02-03T20:42:54.374Z,63.61
2023-02-03T20:44:59.445Z,63.27
2023-02-03T20:47:02.218Z,63.37
2023-02-03T20:49:07.345Z,63.03
2023-02-03T20:51:18.049Z,63.10
2023-02-03T20:53:22.659Z,63.31
2023-02-03T20:55:24.788Z,63.54
2023-02-03T20:57:27.305Z,63.34
2023-02-03T20:59:30.298Z,63.46
2023-02-03T21:01:33.445Z,63.36
2023-02-03T21:03:54.049Z,63.57
2023-02-03T21:05:56.659Z,63.10
2023-02-03T21:07:58.877Z,63.28
2023-02-03T21:10:11.524Z,62.90
2023-02-03T21:12:15.213Z,62.70
2023-02-03T21:14:23.850Z,62.99
2023-02-03T21:16:35.360Z,63.22
2023-02-03T21:18:40.087Z,63.20
2023-02-03T21:20:42.904Z,63.29
2023-02-03T21:22:44.909Z,63.15
2023-02-03T21:24:56.706Z,63.75
2023-02-03T21:27:01.254Z,63.58
2023-02-03T21:29:06.210Z,63.77
2023-02-03T21:31:20.695Z,64.31
2023-02-03T21:33:41.534Z,64.40
2023-02-03T21:35:43.734Z,63.92
2023-02-03T21:37:45.990Z,64.06
2023-02-03T21:39:51.352Z,64.23
2023-02-03T21:41:53.761Z,64.46
2023-02-03T21:44:00.054Z,64.01
2023-02-03T21:46:02.643Z,64.44
2023-02-03T21:48:20.304Z,64.36
2023-02-03T21:50:34.207Z,64.12
2023-02-03T21:52:36.505Z,63.74
2023-02-03T21:54:44.525Z,63.88
2023-02-03T21:56:46.874Z,64.32
2023-02-03T21:58:51.357Z,64.01
2023-02-03T22:00:54.725Z,63.84
2023-02-03T22:03:00.012Z,63.89
2023-02-03T22:05:14.709Z,64.03
2023-02-03T22:07:20.353Z,63.58
2023-02-03T22:09:24.844Z,63.52
2023-02-03T22:11:29.709Z,63.89
2023-02-03T22:13:32.112Z,63.80
2023-02-03T22:15:34.288Z,63.52
2023-02-03T22:17:36.408Z,63.40
2023-02-03T22:19:38.873Z,63.58
2023-02-03T22:21:41.274Z,63.77
2023-02-03T22:23:44.240Z,63.84
2023-02-03T22:25:47.237Z,63.98
2023-02-03T22:27:50.800Z,63.61
2023-02-03T22:29:56.541Z,63.12
2023-02-03T22:31:58.631Z,63.08
2023-02-03T22:34:00.992Z,63.17
2023-02-03T22:36:06.869Z,62.92
2023-02-03T22:38:09.218Z,63.16
2023-02-03T22:40:12.999Z,63.12
2023-02-03T22:42:16.194Z,63.09
2023-02-03T22:44:19.132Z,62.89
2023-02-03T22:46:21.568Z,62.68
2023-02-03T22:48:24.214Z,63.48
2023-02-03T22:50:35.458Z,63.40
2023-02-03T22:52:38.649Z,63.15
2023-02-03T22:54:43.207Z,62.80
2023-02-03T22:56:46.467Z,62.86
2023-02-03T22:58:48.810Z,62.79
2023-02-03T23:00:51.191Z,62.50
2023-02-03T23:02:54.312Z,62.97
2023-02-03T23:04:56.631Z,62.82
2023-02-03T23:07:01.930Z,63.16
2023-02-03T23:09:07.099Z,62.98
2023-02-03T23:11:09.319Z,62.93
2023-02-03T23:13:11.510Z,62.75
2023-02-03T23:15:14.898Z,62.74
2023-02-03T23:17:17.825Z,62.73
2023-02-03T23:19:19.965Z,62.88
2023-02-03T23:21:22.077Z,62.74
2023-02-03T23:23:24.538Z,62.74
2023-02-03T23:25:26.795Z,62.67
2023-02-03T23:27:35.197Z,62.44
2023-02-03T23:29:38.440Z,62.88
2023-02-03T23:31:40.879Z,62.55
2023-02-03T23:34:06.284Z,62.62
2023-02-03T23:36:08.966Z,62.68
2023-02-03T23:38:11.381Z,62.68
2023-02-03T23:40:13.872Z,62.77
2023-02-03T23:42:16.032Z,62.74
2023-02-03T23:44:18.321Z,62.57
2023-02-03T23:46:22.876Z,62.42
2023-02-03T23:48:25.224Z,62.54
2023-02-03T23:50:27.289Z,62.60
2023-02-03T23:52:35.847Z,62.27
2023-02-03T23:54:38.117Z,62.47
2023-02-03T23:56:40.513Z,62.30
2023-02-03T23:58:43.548Z,62.61
